Time;durP1;ratioP1;P1;durP2;ratioP2;P2;SDS_P1;SDS_P2;PMS_P1;PMS_P2;Temp;Humidity;BMP_temperature;BMP_pressure;BME280_temperature;BME280_humidity;BME280_pressure;Samples;Min_cycle;Max_cycle;Signal;HPM_P1;HPM_P2
2023/07/14 00:02:06;;;;;;;19.85;10.93;;;15.80;99.90;;;;;;5073739;28;20041;-75
2023/07/14 00:04:57;;;;;;;19.98;12.68;;;15.80;99.90;;;;;;5055889;28;20514;-75
2023/07/14 00:07:23;;;;;;;24.52;14.00;;;15.80;99.90;;;;;;5073731;28;20052;-75
2023/07/14 00:09:50;;;;;;;18.85;12.75;;;15.80;99.90;;;;;;5072448;28;20066;-75
2023/07/14 00:12:18;;;;;;;23.05;12.48;;;15.80;99.90;;;;;;5055901;28;20053;-75
2023/07/14 00:14:44;;;;;;;20.90;13.43;;;15.80;99.90;;;;;;5055496;28;20129;-75
2023/07/14 00:17:14;;;;;;;26.98;13.43;;;15.80;99.90;;;;;;5055624;28;20373;-74
2023/07/14 00:20:00;;;;;;;26.73;14.13;;;15.80;99.90;;;;;;5073226;28;20136;-74
2023/07/14 00:22:26;;;;;;;19.77;13.57;;;15.80;99.90;;;;;;5054805;28;20052;-74
2023/07/14 00:24:52;;;;;;;24.35;13.65;;;15.90;99.90;;;;;;5055807;28;20075;-74
2023/07/14 00:27:20;;;;;;;21.20;13.32;;;15.80;99.90;;;;;;5055521;28;20478;-74
2023/07/14 00:29:46;;;;;;;27.73;14.05;;;15.80;99.90;;;;;;5073073;28;20040;-74
2023/07/14 00:32:20;;;;;;;21.10;13.88;;;15.80;99.90;;;;;;5058955;28;20045;-74
2023/07/14 00:34:50;;;;;;;26.33;15.23;;;15.70;99.90;;;;;;5059346;28;20052;-74
2023/07/14 00:37:15;;;;;;;24.92;14.27;;;15.70;99.90;;;;;;5059729;28;20051;-74
2023/07/14 00:39:41;;;;;;;25.08;15.55;;;15.80;99.90;;;;;;5059195;28;20388;-75
2023/07/14 00:42:12;;;;;;;22.08;15.00;;;15.70;99.90;;;;;;5059391;28;20495;-74
2023/07/14 00:44:40;;;;;;;24.52;14.35;;;15.70;99.90;;;;;;5059440;28;20048;-74
2023/07/14 00:47:23;;;;;;;19.50;14.70;;;15.70;99.90;;;;;;5059321;28;20048;-75
2023/07/14 00:49:50;;;;;;;26.52;14.68;;;15.80;99.90;;;;;;5077378;28;20115;-75
2023/07/14 00:52:29;;;;;;;21.73;14.20;;;15.80;99.90;;;;;;5059275;28;20048;-74
2023/07/14 00:54:55;;;;;;;25.20;14.88;;;15.80;99.90;;;;;;5059229;28;20408;-74
2023/07/14 00:57:24;;;;;;;20.23;13.73;;;15.70;99.90;;;;;;5059907;28;20045;-74
2023/07/14 00:59:53;;;;;;;22.63;14.18;;;15.70;99.90;;;;;;5059250;28;20485;-74
2023/07/14 01:02:22;;;;;;;25.70;15.52;;;15.70;99.90;;;;;;5077038;28;20051;-75
2023/07/14 01:04:59;;;;;;;26.38;14.90;;;15.70;99.90;;;;;;5058956;28;20045;-74
2023/07/14 01:07:41;;;;;;;23.65;14.88;;;15.70;99.90;;;;;;5058802;28;20048;-75
2023/07/14 01:10:11;;;;;;;28.08;14.52;;;15.60;99.90;;;;;;5058502;28;20106;-74
2023/07/14 01:12:43;;;;;;;24.48;16.08;;;15.60;99.90;;;;;;5076650;28;20045;-74
2023/07/14 01:15:10;;;;;;;23.10;14.10;;;15.60;99.90;;;;;;5058699;28;20491;-74
2023/07/14 01:17:36;;;;;;;25.00;15.48;;;15.60;99.90;;;;;;5058913;28;20090;-74
2023/07/14 01:20:09;;;;;;;25.13;15.70;;;15.50;99.90;;;;;;5058728;28;20045;-74
2023/07/14 01:22:47;;;;;;;;;;;15.50;99.90;;;;;;5042829;28;20048;-75
2023/07/14 01:25:36;;;;;;;23.23;14.25;;;15.50;99.90;;;;;;5058519;28;19920;-75
2023/07/14 01:28:05;;;;;;;27.45;16.88;;;15.50;99.90;;;;;;5058613;28;20083;-74
2023/07/14 01:30:35;;;;;;;27.35;15.60;;;15.40;99.90;;;;;;5058777;28;20055;-75
2023/07/14 01:33:18;;;;;;;27.98;16.25;;;15.50;99.90;;;;;;5058384;28;20472;-75
2023/07/14 01:35:51;;;;;;;26.17;15.48;;;15.50;99.90;;;;;;5058385;28;20067;-75
2023/07/14 01:38:17;;;;;;;25.52;16.63;;;15.50;99.90;;;;;;5058656;28;20472;-74
2023/07/14 01:40:44;;;;;;;26.52;16.55;;;15.40;99.90;;;;;;5058266;28;20040;-74
2023/07/14 01:43:14;;;;;;;25.70;17.88;;;15.40;99.90;;;;;;5057426;28;20486;-75
2023/07/14 01:45:45;;;;;;;23.95;16.45;;;15.40;99.90;;;;;;5058222;28;20463;-75
2023/07/14 01:48:14;;;;;;;28.63;16.58;;;15.50;99.90;;;;;;5058054;28;20091;-75
2023/07/14 01:50:53;;;;;;;27.65;17.00;;;15.40;99.90;;;;;;5058152;28;20392;-75
2023/07/14 01:53:32;;;;;;;27.77;17.15;;;15.40;99.90;;;;;;5057269;28;20091;-75
2023/07/14 01:56:02;;;;;;;29.67;15.75;;;15.40;99.90;;;;;;5057882;28;20101;-75
2023/07/14 01:58:59;;;;;;;29.08;16.20;;;15.40;99.90;;;;;;5058067;28;20131;-75
2023/07/14 02:01:26;;;;;;;26.40;16.27;;;15.50;99.90;;;;;;5057930;28;20101;-75
2023/07/14 02:03:55;;;;;;;27.60;16.95;;;15.50;99.90;;;;;;5057660;28;20040;-75
2023/07/14 02:06:31;;;;;;;30.27;17.27;;;15.40;99.90;;;;;;5057906;28;20060;-75
2023/07/14 02:08:59;;;;;;;25.60;16.67;;;15.40;99.90;;;;;;5075587;28;20079;-75
2023/07/14 02:11:28;;;;;;;26.55;16.35;;;15.40;99.90;;;;;;5075666;28;20048;-75
2023/07/14 02:13:56;;;;;;;28.38;15.88;;;15.40;99.90;;;;;;5075661;28;20049;-75
2023/07/14 02:16:23;;;;;;;26.13;17.63;;;15.40;99.90;;;;;;5075286;28;20051;-75
2023/07/14 02:18:53;;;;;;;30.80;16.33;;;15.40;99.90;;;;;;5057438;28;20052;-75
2023/07/14 02:21:28;;;;;;;31.15;16.95;;;15.40;99.90;;;;;;5075352;28;20584;-75
2023/07/14 02:23:59;;;;;;;30.35;16.15;;;15.40;99.90;;;;;;5057696;28;20044;-75
2023/07/14 02:26:33;;;;;;;26.77;16.52;;;15.40;99.90;;;;;;5075297;28;20049;-75
2023/07/14 02:29:01;;;;;;;28.20;16.35;;;15.40;99.90;;;;;;5075066;28;20523;-75
2023/07/14 02:31:33;;;;;;;27.85;17.58;;;15.40;99.90;;;;;;5075084;28;20476;-75
2023/07/14 02:33:59;;;;;;;29.33;16.92;;;15.40;99.90;;;;;;5056272;28;20555;-74
2023/07/14 02:36:46;;;;;;;27.77;16.02;;;15.40;99.90;;;;;;5057024;28;20041;-75
2023/07/14 02:39:12;;;;;;;26.98;17.17;;;15.40;99.90;;;;;;5057364;28;20067;-75
2023/07/14 02:41:41;;;;;;;31.55;17.83;;;15.40;99.90;;;;;;5057206;28;20502;-75
2023/07/14 02:44:13;;;;;;;29.00;17.50;;;15.40;99.90;;;;;;5056791;28;20094;-75
2023/07/14 02:46:54;;;;;;;35.22;17.85;;;15.30;99.90;;;;;;5057057;28;20076;-74
2023/07/14 02:49:20;;;;;;;29.02;16.27;;;15.30;99.90;;;;;;5057053;28;20045;-75
2023/07/14 02:51:46;;;;;;;27.90;17.27;;;15.30;99.90;;;;;;5056827;28;20101;-75
2023/07/14 02:54:14;;;;;;;29.60;16.60;;;15.30;99.90;;;;;;5073597;28;20132;-75
2023/07/14 02:56:42;;;;;;;27.83;16.55;;;15.30;99.90;;;;;;5056744;28;20049;-75
2023/07/14 02:59:10;;;;;;;28.50;16.10;;;15.30;99.90;;;;;;5057135;28;20044;-75
2023/07/14 03:01:39;;;;;;;27.20;16.02;;;15.30;99.90;;;;;;5056726;28;20056;-75
2023/07/14 03:04:09;;;;;;;31.48;16.67;;;15.30;99.90;;;;;;5056622;28;20093;-75
2023/07/14 03:06:35;;;;;;;27.15;15.80;;;15.30;99.90;;;;;;5056446;28;20053;-75
2023/07/14 03:09:01;;;;;;;30.02;15.85;;;15.30;99.90;;;;;;5056395;28;20049;-75
2023/07/14 03:11:31;;;;;;;27.50;16.40;;;15.30;99.90;;;;;;5204347;22;20041;-75
2023/07/14 03:14:11;;;;;;;26.63;16.38;;;15.30;99.90;;;;;;5055934;28;20048;-75
2023/07/14 03:17:15;;;;;;;;;;;;;;;;;;;;;
2023/07/14 03:20:15;;;;;;;28.13;14.93;;;15.20;99.90;;;;;;5073832;28;20132;-74
2023/07/14 03:25:55;;;;;;;28.17;16.38;;;15.20;99.90;;;;;;5067929;28;20079;-74
2023/07/14 03:28:28;;;;;;;26.13;15.73;;;15.20;99.90;;;;;;5064835;28;20047;-74
2023/07/14 03:31:21;;;;;;;27.08;15.90;;;15.20;99.90;;;;;;5054655;28;20404;-75
2023/07/14 03:33:55;;;;;;;29.02;17.15;;;15.10;99.90;;;;;;5056841;28;20124;-75
2023/07/14 03:39:48;;;;;;;32.58;16.23;;;15.10;99.90;;;;;;5056347;28;20090;-74
2023/07/14 03:46:04;;;;;;;28.17;16.17;;;15.00;99.90;;;;;;4999014;28;20061;-74
2023/07/14 03:48:45;;;;;;;27.08;16.10;;;15.00;99.90;;;;;;5073611;28;20373;-74
2023/07/14 03:51:11;;;;;;;25.92;16.60;;;15.00;99.90;;;;;;5069474;28;20523;-74
2023/07/14 03:56:36;;;;;;;27.67;16.05;;;14.90;99.90;;;;;;5066065;28;20056;-74
2023/07/14 03:59:22;;;;;;;29.17;16.25;;;14.90;99.90;;;;;;5056495;28;20125;-75
2023/07/14 04:02:25;;;;;;;28.80;16.23;;;14.90;99.90;;;;;;5055839;28;20497;-75
2023/07/14 04:05:09;;;;;;;30.80;15.98;;;15.00;99.90;;;;;;5072926;28;20123;-74
2023/07/14 04:08:11;;;;;;;30.88;15.95;;;14.90;99.90;;;;;;5048673;28;20052;-75
2023/07/14 04:11:25;;;;;;;25.92;14.80;;;15.00;99.90;;;;;;5071011;28;20052;-75
2023/07/14 04:14:35;;;;;;;29.13;14.70;;;15.00;99.90;;;;;;5051380;28;20049;-74
2023/07/14 04:17:30;;;;;;;30.65;15.82;;;15.00;99.90;;;;;;5033694;28;20129;-74
2023/07/14 04:20:06;;;;;;;26.05;14.20;;;15.00;99.90;;;;;;5049477;28;20049;-75
2023/07/14 04:23:19;;;;;;;;;;;;;;;;;;;;;
2023/07/14 04:26:07;;;;;;;28.88;14.15;;;15.10;99.90;;;;;;5026700;28;20060;-75
2023/07/14 04:28:56;;;;;;;30.88;14.52;;;15.10;99.90;;;;;;5035158;28;20444;-75
2023/07/14 04:31:23;;;;;;;27.27;15.48;;;15.20;99.90;;;;;;5034321;28;20428;-75
2023/07/14 04:33:54;;;;;;;31.35;16.08;;;15.20;99.90;;;;;;5034000;28;20503;-75
2023/07/14 04:37:18;;;;;;;23.95;14.80;;;15.20;99.90;;;;;;5032944;28;20118;-75
2023/07/14 04:40:10;;;;;;;23.47;13.47;;;15.10;99.90;;;;;;5022450;28;20060;-74
2023/07/14 04:43:36;;;;;;;;;;;;;;;;;;;;;
2023/07/14 04:46:51;;;;;;;24.15;13.52;;;15.30;99.90;;;;;;5034999;28;20053;-75
2023/07/14 04:50:13;;;;;;;29.88;13.20;;;15.30;99.90;;;;;;5035544;28;20064;-75
2023/07/14 04:53:21;;;;;;;24.60;14.00;;;15.30;99.90;;;;;;5021758;28;20056;-74
2023/07/14 04:56:43;;;;;;;28.20;14.43;;;15.30;99.90;;;;;;5031679;28;20049;-74
2023/07/14 04:59:10;;;;;;;23.92;13.32;;;15.40;99.90;;;;;;4961892;28;20159;-75
2023/07/14 05:01:58;;;;;;;20.95;12.52;;;15.40;99.90;;;;;;5034980;28;20497;-75
2023/07/14 05:04:33;;;;;;;24.65;12.65;;;15.40;99.90;;;;;;5035272;28;20107;-75
2023/07/14 05:08:01;;;;;;;26.13;11.73;;;15.50;99.90;;;;;;5034931;28;20158;-75
2023/07/14 05:10:52;;;;;;;22.13;10.82;;;15.60;99.90;;;;;;5012308;28;20402;-75
2023/07/14 05:14:26;;;;;;;23.55;11.20;;;15.70;99.90;;;;;;5027464;28;20443;-75
2023/07/14 05:17:49;;;;;;;22.50;11.00;;;15.70;99.90;;;;;;4972587;28;20102;-75
2023/07/14 05:24:11;;;;;;;24.52;10.38;;;15.90;99.90;;;;;;4959130;28;20145;-75
2023/07/14 05:31:23;;;;;;;17.40;9.23;;;16.10;99.90;;;;;;4899960;29;20568;-75
2023/07/14 05:34:11;;;;;;;18.40;10.35;;;16.30;99.90;;;;;;4903223;29;20051;-74
2023/07/14 05:36:46;;;;;;;19.30;10.20;;;16.40;99.90;;;;;;4964083;28;20096;-74
2023/07/14 05:39:12;;;;;;;22.15;10.77;;;16.50;99.90;;;;;;5038107;28;20061;-74
2023/07/14 05:41:38;;;;;;;21.33;9.90;;;16.40;99.90;;;;;;5037284;28;20041;-76
2023/07/14 05:44:40;;;;;;;20.23;11.05;;;16.50;99.90;;;;;;5037664;28;20052;-74
2023/07/14 05:47:09;;;;;;;17.38;10.25;;;16.50;99.90;;;;;;5038102;28;20572;-74
2023/07/14 05:49:54;;;;;;;20.63;9.70;;;16.60;99.90;;;;;;5038004;28;20128;-74
2023/07/14 05:52:36;;;;;;;18.00;10.40;;;16.80;99.90;;;;;;5034810;28;20056;-75
2023/07/14 05:55:14;;;;;;;21.95;10.27;;;16.80;99.90;;;;;;5036747;28;20057;-75
2023/07/14 05:57:43;;;;;;;21.90;10.18;;;17.00;99.90;;;;;;5037936;28;20481;-74
2023/07/14 06:00:20;;;;;;;20.30;9.70;;;17.10;99.90;;;;;;5036965;28;20500;-74
2023/07/14 06:02:50;;;;;;;18.23;9.27;;;17.20;99.90;;;;;;5037512;28;20550;-75
2023/07/14 06:05:17;;;;;;;22.40;10.05;;;17.40;99.90;;;;;;5037406;28;20481;-74
2023/07/14 06:08:02;;;;;;;16.90;9.40;;;17.40;99.90;;;;;;5055431;28;20048;-75
2023/07/14 06:10:47;;;;;;;17.52;10.13;;;17.60;99.90;;;;;;5037713;28;20130;-75
2023/07/14 06:14:11;;;;;;;20.80;10.35;;;17.70;99.90;;;;;;5054440;28;20049;-75
2023/07/14 06:16:43;;;;;;;21.25;9.57;;;17.80;99.90;;;;;;5030154;28;20052;-75
2023/07/14 06:19:09;;;;;;;18.73;10.57;;;18.00;99.90;;;;;;5034619;28;20057;-74
2023/07/14 06:21:46;;;;;;;18.25;9.35;;;18.10;99.90;;;;;;5037332;28;20175;-74
2023/07/14 06:25:12;;;;;;;22.50;10.20;;;18.20;99.90;;;;;;5037060;28;20051;-75
2023/07/14 06:35:33;;;;;;;20.83;9.40;;;18.70;99.90;;;;;;4973816;28;20050;-77
2023/07/14 06:38:30;;;;;;;19.85;9.05;;;18.70;99.90;;;;;;4955849;28;20570;-74
2023/07/14 06:49:09;;;;;;;17.67;8.00;;;19.20;99.90;;;;;;4979807;28;20091;-75
2023/07/14 06:51:52;;;;;;;18.33;7.80;;;19.40;99.90;;;;;;4947858;29;20538;-74
2023/07/14 06:57:20;;;;;;;14.75;7.28;;;19.60;99.90;;;;;;4938114;29;20055;-75
2023/07/14 06:59:48;;;;;;;21.40;9.50;;;19.80;99.90;;;;;;4938540;29;20055;-74
2023/07/14 07:02:20;;;;;;;15.52;8.70;;;19.80;99.90;;;;;;4954123;29;20058;-74
2023/07/14 07:04:46;;;;;;;17.33;7.83;;;19.80;99.90;;;;;;4954439;29;20071;-75
2023/07/14 07:07:11;;;;;;;18.38;7.07;;;19.90;99.90;;;;;;4954546;29;20105;-76
2023/07/14 07:09:37;;;;;;;19.88;7.75;;;20.00;99.90;;;;;;4938607;29;20571;-75
2023/07/14 07:12:09;;;;;;;19.52;7.68;;;20.20;99.90;;;;;;4954231;29;20035;-75
2023/07/14 07:14:38;;;;;;;17.15;7.60;;;20.10;99.90;;;;;;4938070;29;20102;-76
2023/07/14 07:17:04;;;;;;;18.52;6.80;;;20.10;99.90;;;;;;4938528;29;20059;-75
2023/07/14 07:19:32;;;;;;;14.98;7.30;;;20.20;99.90;;;;;;4946156;29;20419;-74
2023/07/14 07:21:58;;;;;;;15.90;6.60;;;20.30;99.90;;;;;;5010370;28;20460;-75
2023/07/14 07:24:24;;;;;;;22.70;8.15;;;20.30;99.90;;;;;;5043691;28;20041;-74
2023/07/14 07:26:50;;;;;;;17.33;6.90;;;20.40;99.90;;;;;;5054303;28;20045;-75
2023/07/14 07:29:16;;;;;;;17.00;6.97;;;20.60;99.90;;;;;;5054188;28;20457;-75
2023/07/14 07:31:41;;;;;;;16.30;7.15;;;20.80;99.90;;;;;;5054096;28;20037;-75
2023/07/14 07:34:08;;;;;;;16.80;6.95;;;20.90;99.90;;;;;;5035298;28;20413;-75
2023/07/14 07:36:34;;;;;;;18.80;6.55;;;21.00;99.90;;;;;;5035952;28;20087;-74
2023/07/14 07:39:00;;;;;;;20.30;6.68;;;20.90;99.90;;;;;;5053685;28;20076;-75
2023/07/14 07:41:26;;;;;;;19.30;6.13;;;21.00;99.90;;;;;;5053494;28;20476;-74
2023/07/14 07:43:53;;;;;;;18.10;6.28;;;21.10;99.90;;;;;;5036031;28;20460;-74
2023/07/14 07:46:21;;;;;;;13.45;6.68;;;21.10;99.90;;;;;;5035717;28;20075;-74
2023/07/14 07:48:47;;;;;;;18.40;6.43;;;21.30;99.90;;;;;;5036392;28;20048;-75
2023/07/14 07:51:15;;;;;;;14.25;6.25;;;21.40;99.90;;;;;;5035713;28;20049;-75
2023/07/14 07:53:41;;;;;;;14.32;5.38;;;21.60;99.90;;;;;;5053510;28;20615;-75
2023/07/14 07:56:08;;;;;;;14.73;6.43;;;21.70;99.90;;;;;;5053527;28;20124;-75
2023/07/14 07:58:34;;;;;;;16.38;5.70;;;21.70;99.90;;;;;;5053698;28;20060;-75
2023/07/14 08:01:02;;;;;;;15.05;6.43;;;22.00;99.90;;;;;;5036009;28;20481;-75
2023/07/14 08:03:29;;;;;;;11.93;5.63;;;22.10;99.90;;;;;;5035653;28;20123;-74
2023/07/14 08:06:04;;;;;;;12.75;6.43;;;22.00;99.90;;;;;;5035631;28;20118;-75
2023/07/14 08:08:33;;;;;;;14.63;6.07;;;22.00;99.90;;;;;;5053358;28;20067;-75
2023/07/14 08:10:59;;;;;;;14.07;6.57;;;22.10;99.90;;;;;;5053618;28;20037;-74
2023/07/14 08:13:40;;;;;;;14.98;6.13;;;22.00;99.90;;;;;;5035591;28;20060;-74
2023/07/14 08:16:06;;;;;;;15.48;5.70;;;22.00;99.90;;;;;;5035537;28;20489;-75
2023/07/14 08:18:38;;;;;;;13.25;5.35;;;21.90;99.90;;;;;;5053366;28;20041;-75
2023/07/14 08:21:05;;;;;;;11.52;4.70;;;22.00;99.90;;;;;;5053521;28;20124;-75
2023/07/14 08:23:30;;;;;;;11.10;4.78;;;22.10;99.90;;;;;;5035401;28;20504;-74
2023/07/14 08:25:58;;;;;;;12.55;4.70;;;22.40;99.90;;;;;;5053501;28;20036;-75
2023/07/14 08:28:24;;;;;;;9.65;4.80;;;22.10;99.90;;;;;;5035377;28;20075;-75
2023/07/14 08:30:52;;;;;;;13.27;4.75;;;22.10;99.90;;;;;;5035399;28;20080;-74
2023/07/14 08:33:19;;;;;;;10.80;5.10;;;22.20;99.90;;;;;;5035209;28;20447;-75
2023/07/14 08:35:48;;;;;;;10.60;4.70;;;22.30;99.90;;;;;;5035278;28;20095;-74
2023/07/14 08:38:17;;;;;;;11.15;3.90;;;22.30;99.90;;;;;;5035754;28;20524;-74
2023/07/14 08:40:54;;;;;;;10.65;4.45;;;22.40;99.90;;;;;;5035495;28;20081;-74
2023/07/14 08:43:35;;;;;;;11.70;4.35;;;22.40;99.90;;;;;;5053339;28;20037;-75
2023/07/14 08:46:15;;;;;;;11.25;3.95;;;22.20;99.90;;;;;;5035491;28;20133;-75
2023/07/14 08:48:52;;;;;;;10.15;4.85;;;22.40;99.90;;;;;;5035285;28;20106;-75
2023/07/14 08:51:34;;;;;;;10.63;4.47;;;22.50;99.90;;;;;;5035743;28;20094;-75
2023/07/14 08:54:15;;;;;;;11.20;4.10;;;22.40;99.90;;;;;;5056923;28;20424;-75
2023/07/14 08:56:44;;;;;;;10.05;4.40;;;22.30;99.90;;;;;;5039068;28;20060;-75
2023/07/14 08:59:39;;;;;;;11.02;4.50;;;22.10;99.90;;;;;;5056786;28;20551;-75
2023/07/14 09:02:23;;;;;;;11.45;4.05;;;22.30;99.90;;;;;;5036540;28;20455;-75
2023/07/14 09:05:00;;;;;;;10.93;4.22;;;22.50;99.90;;;;;;5039158;28;20480;-75
2023/07/14 09:07:29;;;;;;;11.43;4.22;;;22.30;99.90;;;;;;5039126;28;20147;-75
2023/07/14 09:09:58;;;;;;;11.30;4.70;;;22.50;99.90;;;;;;5038813;28;20506;-75
2023/07/14 09:12:31;;;;;;;13.13;4.47;;;22.60;99.90;;;;;;5038465;28;20068;-75
2023/07/14 09:15:19;;;;;;;11.30;5.53;;;22.70;99.90;;;;;;5038618;28;20055;-76
2023/07/14 09:18:19;;;;;;;8.55;4.40;;;22.70;99.90;;;;;;5038627;28;20538;-75
2023/07/14 09:21:04;;;;;;;9.27;4.00;;;22.60;99.90;;;;;;5038590;28;20063;-75
2023/07/14 09:23:56;;;;;;;9.88;4.82;;;22.70;99.90;;;;;;5056332;28;20483;-75
2023/07/14 09:26:40;;;;;;;9.93;4.78;;;22.70;99.90;;;;;;5056317;28;20404;-75
2023/07/14 09:29:20;;;;;;;13.93;4.47;;;22.90;99.90;;;;;;5056286;28;20480;-75
2023/07/14 09:32:01;;;;;;;9.38;4.20;;;23.00;99.90;;;;;;5056218;28;20095;-75
2023/07/14 09:34:38;;;;;;;8.73;4.30;;;23.20;99.90;;;;;;5038227;28;20048;-75
2023/07/14 09:37:33;;;;;;;12.88;4.68;;;23.30;99.90;;;;;;5038551;28;20048;-75
2023/07/14 09:40:23;;;;;;;9.40;4.72;;;23.50;99.90;;;;;;5037030;28;20090;-75
2023/07/14 09:42:54;;;;;;;11.52;4.00;;;23.40;99.90;;;;;;5056024;28;20076;-75
2023/07/14 09:45:28;;;;;;;9.73;4.07;;;23.40;99.90;;;;;;5037873;28;20052;-75
2023/07/14 09:48:16;;;;;;;11.75;4.60;;;23.40;99.90;;;;;;5038281;28;20045;-75
2023/07/14 09:51:06;;;;;;;9.80;4.45;;;23.50;99.90;;;;;;5038160;28;20053;-75
2023/07/14 09:53:32;;;;;;;11.80;4.38;;;23.50;99.90;;;;;;5056067;28;20049;-75
2023/07/14 09:56:03;;;;;;;13.25;5.32;;;23.70;99.90;;;;;;5055727;28;20091;-75
2023/07/14 09:58:31;;;;;;;9.20;4.53;;;23.60;99.90;;;;;;5055627;28;20405;-75
2023/07/14 10:01:06;;;;;;;8.90;4.55;;;23.30;99.90;;;;;;5037906;28;20056;-75
2023/07/14 10:03:54;;;;;;;8.48;3.75;;;23.10;99.90;;;;;;5055314;28;20045;-75
2023/07/14 10:06:28;;;;;;;8.80;4.35;;;23.00;99.90;;;;;;5055492;28;20392;-75
2023/07/14 10:08:59;;;;;;;8.65;4.20;;;22.70;99.90;;;;;;5055756;28;20045;-75
2023/07/14 10:11:38;;;;;;;8.90;4.18;;;22.50;99.90;;;;;;5037820;28;20485;-75
2023/07/14 10:14:25;;;;;;;8.18;3.88;;;22.90;99.90;;;;;;5037596;28;20385;-74
2023/07/14 10:16:53;;;;;;;8.68;4.28;;;23.20;99.90;;;;;;5037813;28;20492;-75
2023/07/14 10:19:21;;;;;;;11.43;3.83;;;23.00;99.90;;;;;;5055204;28;20122;-75
2023/07/14 10:22:04;;;;;;;9.25;4.30;;;22.80;99.90;;;;;;5055554;28;20048;-75
2023/07/14 10:24:35;;;;;;;9.23;4.72;;;22.80;99.90;;;;;;5037632;28;20052;-74
2023/07/14 10:27:16;;;;;;;8.05;4.20;;;22.90;99.90;;;;;;5037612;28;20049;-75
2023/07/14 10:29:57;;;;;;;11.82;4.40;;;23.20;99.90;;;;;;5055206;28;20516;-74
2023/07/14 10:32:45;;;;;;;8.52;4.47;;;23.10;99.90;;;;;;5037225;28;20045;-75
2023/07/14 10:35:28;;;;;;;11.85;3.67;;;23.00;99.90;;;;;;5037559;28;20064;-75
2023/07/14 10:38:04;;;;;;;8.63;4.03;;;22.90;99.90;;;;;;5037757;28;20063;-74
2023/07/14 10:40:35;;;;;;;7.18;3.65;;;23.10;99.90;;;;;;5055050;28;20049;-74
2023/07/14 10:43:17;;;;;;;7.32;3.90;;;23.30;99.90;;;;;;5054939;28;20401;-75
2023/07/14 10:45:58;;;;;;;7.45;3.80;;;23.40;99.90;;;;;;5054932;28;20412;-74
2023/07/14 10:48:33;;;;;;;9.07;4.43;;;23.30;99.90;;;;;;5055080;28;20116;-75
2023/07/14 10:51:06;;;;;;;10.27;4.80;;;23.10;99.90;;;;;;5055023;28;20071;-75
2023/07/14 10:53:44;;;;;;;8.95;4.78;;;23.20;99.90;;;;;;5055046;28;20056;-75
2023/07/14 10:56:27;;;;;;;15.88;8.38;;;23.50;99.90;;;;;;5036816;28;20140;-75
2023/07/14 10:58:58;;;;;;;;;;;23.80;99.90;;;;;;5037198;28;20049;-75
2023/07/14 11:01:36;;;;;;;14.77;5.43;;;23.90;99.90;;;;;;5054758;28;19920;-75
2023/07/14 11:04:11;;;;;;;10.60;6.28;;;23.50;99.90;;;;;;5036950;28;20476;-75
2023/07/14 11:06:38;;;;;;;10.05;4.65;;;23.30;99.90;;;;;;5036570;28;20045;-74
2023/07/14 11:09:14;;;;;;;10.25;5.15;;;23.20;99.90;;;;;;5054394;28;20044;-75
2023/07/14 11:11:49;;;;;;;10.82;4.97;;;23.10;99.90;;;;;;5036505;28;20072;-75
2023/07/14 11:14:26;;;;;;;10.40;4.57;;;22.90;99.90;;;;;;5036284;28;20550;-75
2023/07/14 11:16:59;;;;;;;8.38;4.60;;;22.80;99.90;;;;;;5053633;28;20064;-75
2023/07/14 11:19:55;;;;;;;;;;;22.80;99.90;;;;;;5036809;28;20044;-75
2023/07/14 11:22:36;;;;;;;10.27;4.70;;;22.90;99.90;;;;;;5054459;28;19921;-74
2023/07/14 11:25:23;;;;;;;9.73;4.35;;;23.00;99.90;;;;;;5036527;28;20493;-74
2023/07/14 11:28:06;;;;;;;9.52;4.47;;;22.90;99.90;;;;;;5036492;28;20398;-74
2023/07/14 11:30:42;;;;;;;9.90;4.20;;;23.10;99.90;;;;;;5036588;28;20057;-74
2023/07/14 11:33:36;;;;;;;8.70;4.75;;;23.00;99.90;;;;;;5054169;28;20047;-75
2023/07/14 11:36:15;;;;;;;11.95;4.55;;;22.80;99.90;;;;;;5053850;28;20049;-75
2023/07/14 11:39:05;;;;;;;11.85;4.45;;;23.00;99.90;;;;;;5036506;28;20048;-75
2023/07/14 11:41:33;;;;;;;10.82;4.82;;;23.10;99.90;;;;;;5053730;28;20049;-74
2023/07/14 11:44:10;;;;;;;8.32;4.63;;;22.90;99.90;;;;;;5036254;28;20048;-75
2023/07/14 11:46:43;;;;;;;11.32;4.70;;;22.90;99.90;;;;;;5053848;28;20504;-74
2023/07/14 11:49:36;;;;;;;10.90;4.20;;;22.90;99.90;;;;;;5036093;28;20048;-75
2023/07/14 11:52:26;;;;;;;8.57;3.92;;;23.00;99.90;;;;;;5053829;28;20045;-75
2023/07/14 11:55:29;;;;;;;7.78;4.90;;;23.30;99.90;;;;;;5035699;28;20115;-75
2023/07/14 11:58:05;;;;;;;;;;;23.70;99.90;;;;;;5053053;28;20045;-75
2023/07/14 12:00:41;;;;;;;9.82;4.55;;;23.70;99.90;;;;;;5036261;28;20015;-75
2023/07/14 12:03:30;;;;;;;10.82;4.95;;;23.80;99.90;;;;;;5035971;28;20068;-74
2023/07/14 12:06:18;;;;;;;10.18;5.22;;;23.90;99.90;;;;;;5053670;28;20052;-75
2023/07/14 12:08:58;;;;;;;9.50;4.40;;;23.90;99.90;;;;;;5053444;28;20493;-74
2023/07/14 12:11:30;;;;;;;11.20;4.45;;;23.90;99.90;;;;;;5035892;28;20053;-77
2023/07/14 12:13:58;;;;;;;11.10;4.80;;;23.90;99.90;;;;;;5122154;22;20075;-76
2023/07/14 12:16:50;;;;;;;11.90;4.72;;;24.00;99.90;;;;;;5055322;28;20480;-75
2023/07/14 12:19:49;;;;;;;9.50;4.80;;;23.90;99.90;;;;;;5055100;28;20500;-76
2023/07/14 12:22:49;;;;;;;8.88;4.28;;;23.80;99.90;;;;;;5072030;28;20082;-76
2023/07/14 12:25:25;;;;;;;11.63;5.18;;;24.00;99.90;;;;;;5055428;28;20044;-76
2023/07/14 12:28:01;;;;;;;9.05;4.30;;;23.90;99.90;;;;;;5054838;28;20071;-76
2023/07/14 12:30:31;;;;;;;7.80;4.45;;;23.80;99.90;;;;;;5055209;28;20121;-76
2023/07/14 12:33:23;;;;;;;13.13;5.30;;;24.10;99.90;;;;;;5054820;28;20048;-75
2023/07/14 12:35:54;;;;;;;11.82;4.82;;;24.40;99.90;;;;;;5073014;28;20128;-76
2023/07/14 12:38:33;;;;;;;10.50;4.93;;;24.20;99.90;;;;;;5054547;28;20127;-76
2023/07/14 12:41:17;;;;;;;10.73;5.30;;;24.40;99.90;;;;;;5053417;28;20110;-76
2023/07/14 12:44:03;;;;;;;10.67;5.20;;;24.10;99.90;;;;;;5072958;28;20106;-76
2023/07/14 12:54:25;;;;;;;8.77;5.30;;;23.80;99.90;;;;;;4954403;28;20586;-76
2023/07/14 12:57:04;;;;;;;11.07;5.68;;;23.80;99.90;;;;;;5050915;28;20515;-76
2023/07/14 12:59:33;;;;;;;11.52;5.60;;;24.00;99.90;;;;;;5055255;28;20048;-76
2023/07/14 13:02:12;;;;;;;10.90;5.05;;;23.50;99.90;;;;;;5054879;28;20102;-76
2023/07/14 13:04:58;;;;;;;10.20;4.70;;;23.70;99.90;;;;;;5069738;28;20056;-77
2023/07/14 13:08:16;;;;;;;;;;;;;;;;;;;;;
2023/07/14 13:10:47;;;;;;;10.10;5.18;;;23.50;99.90;;;;;;5067606;28;20052;-76
2023/07/14 13:13:44;;;;;;;9.93;4.50;;;23.50;99.90;;;;;;5054789;28;20498;-76
2023/07/14 13:19:41;;;;;;;9.95;5.05;;;23.50;99.90;;;;;;5073012;28;20080;-75
2023/07/14 13:32:52;;;;;;;14.95;5.25;;;23.20;99.90;;;;;;5054774;28;20059;-76
2023/07/14 13:36:03;;;;;;;12.85;5.30;;;23.20;99.90;;;;;;5054208;28;20087;-76
2023/07/14 13:38:49;;;;;;;11.57;6.15;;;23.10;99.90;;;;;;5050014;28;20052;-76
2023/07/14 13:41:53;;;;;;;8.60;4.80;;;23.10;99.90;;;;;;5076263;28;20052;-76
2023/07/14 13:44:45;;;;;;;9.07;5.72;;;23.10;99.90;;;;;;4978333;28;20054;-76
2023/07/14 13:48:11;;;;;;;11.43;6.18;;;23.00;99.90;;;;;;5074064;28;20183;-76
2023/07/14 13:50:59;;;;;;;10.68;6.05;;;23.00;99.90;;;;;;5076287;28;20488;-76
2023/07/14 13:53:40;;;;;;;12.45;6.13;;;22.80;99.90;;;;;;5035331;28;20056;-76
2023/07/14 13:59:46;;;;;;;12.73;7.15;;;22.60;99.90;;;;;;5072509;28;20048;-76
2023/07/14 14:02:39;;;;;;;11.35;6.72;;;22.40;99.90;;;;;;5057592;28;20051;-76
2023/07/14 14:05:37;;;;;;;10.45;6.13;;;22.40;99.90;;;;;;5076077;28;20059;-76
2023/07/14 14:08:10;;;;;;;11.05;7.05;;;22.50;99.90;;;;;;5073915;28;20419;-76
2023/07/14 14:10:45;;;;;;;11.07;6.40;;;22.30;99.90;;;;;;5075596;28;20052;-76
2023/07/14 14:13:23;;;;;;;10.15;7.30;;;22.50;99.90;;;;;;5074806;28;20139;-75
2023/07/14 14:15:54;;;;;;;13.57;6.57;;;22.50;99.90;;;;;;5073775;28;20056;-75
2023/07/14 14:19:10;;;;;;;14.05;7.63;;;22.50;99.90;;;;;;5075563;28;20485;-76
2023/07/14 14:22:27;;;;;;;12.18;6.50;;;22.80;99.90;;;;;;5049711;28;20098;-76
2023/07/14 14:25:44;;;;;;;13.45;7.90;;;23.00;99.90;;;;;;4976879;28;20507;-75
2023/07/14 14:28:36;;;;;;;12.82;7.03;;;23.10;99.90;;;;;;4905201;28;20056;-76
2023/07/14 14:31:12;;;;;;;13.93;7.88;;;23.00;99.90;;;;;;4993730;28;20065;-75
2023/07/14 14:34:28;;;;;;;15.35;8.13;;;22.80;99.90;;;;;;4977802;28;20462;-75
2023/07/14 14:37:41;;;;;;;14.65;7.70;;;22.70;99.90;;;;;;4977080;28;20383;-76
2023/07/14 14:41:17;;;;;;;;;;;;;;;;;;;;;
2023/07/14 14:44:02;;;;;;;15.00;7.88;;;22.70;99.90;;;;;;4841918;29;20152;-75
2023/07/14 14:47:26;;;;;;;11.60;7.18;;;22.40;99.90;;;;;;4988268;28;20059;-75
2023/07/14 14:51:02;;;;;;;11.93;7.22;;;22.50;99.90;;;;;;5034886;28;20052;-75